Pleasanton, California
Current Conditions -  °F | °C
As of 3:53 AM on Thursday 27 Nov 2014 (Local Time) from KLVK Reporting Station
Haze Haze  
Wind Chill: 48°   Ceiling: Unl
Heat Index: 48°   Visibility: 4mi
Dew Point: 43°   Wind: 0mph
Humidity: 83%   Direction: NA
Pressure: 30.18"   Gusts: NA
Location:  37.66°N, 121.87°W
Report Text: KLVK 271153Z AUTO 00000KT 4SM HZ CLR 09/06 A3018 RMK AO2 SLP219 T00890061 10111 20078 58008
Loading
Personal Weather Stations






























Interactive Weather Map New forecast layout! Learn more

10-Day Weather Forecast

Advertisements
Track Severe Weather on mobile